Time;durP1;ratioP1;P1;durP2;ratioP2;P2;SDS_P1;SDS_P2;PMS_P1;PMS_P2;Temp;Humidity;BMP_temperature;BMP_pressure;BME280_temperature;BME280_humidity;BME280_pressure;Samples;Min_cycle;Max_cycle;Signal;HPM_P1;HPM_P2
2023/07/26 00:02:04;;;;;;;2.67;1.40;;;12.80;99.90;;;;;;4973996;28;20031;-56
2023/07/26 00:04:30;;;;;;;4.35;1.13;;;12.70;99.90;;;;;;4973812;28;20026;-56
2023/07/26 00:06:55;;;;;;;2.72;1.17;;;12.70;99.90;;;;;;4973966;28;20388;-57
2023/07/26 00:09:21;;;;;;;1.65;0.93;;;12.70;99.90;;;;;;4972851;28;20026;-58
2023/07/26 00:11:47;;;;;;;2.72;1.27;;;12.80;99.90;;;;;;4973853;28;20066;-57
2023/07/26 00:14:13;;;;;;;2.92;1.40;;;12.80;99.90;;;;;;4973599;28;20042;-57
2023/07/26 00:16:39;;;;;;;4.15;1.40;;;12.80;99.90;;;;;;4973833;28;20031;-56
2023/07/26 00:19:05;;;;;;;2.20;1.17;;;12.80;99.90;;;;;;4973807;28;20125;-58
2023/07/26 00:21:32;;;;;;;3.05;1.40;;;12.80;99.90;;;;;;4973501;28;20105;-58
2023/07/26 00:23:58;;;;;;;3.00;1.35;;;12.80;99.90;;;;;;4972054;28;20063;-56
2023/07/26 00:26:25;;;;;;;2.10;1.15;;;12.70;99.90;;;;;;4973642;28;20085;-58
2023/07/26 00:28:51;;;;;;;3.53;1.20;;;12.70;99.90;;;;;;4973640;28;20039;-57
2023/07/26 00:31:17;;;;;;;2.53;1.42;;;12.60;99.90;;;;;;4973562;28;20542;-57
2023/07/26 00:33:45;;;;;;;2.53;1.38;;;12.60;99.90;;;;;;4971933;28;20041;-56
2023/07/26 00:36:11;;;;;;;4.18;2.08;;;12.70;99.90;;;;;;4973456;28;20027;-54
2023/07/26 00:38:36;;;;;;;4.10;1.40;;;12.70;99.90;;;;;;4972325;28;20518;-56
2023/07/26 00:41:02;;;;;;;3.20;1.17;;;12.80;99.90;;;;;;4972367;28;20042;-56
2023/07/26 00:43:28;;;;;;;3.25;1.50;;;12.80;99.90;;;;;;4971541;28;20034;-54
2023/07/26 00:45:53;;;;;;;3.33;1.40;;;12.90;99.90;;;;;;4972088;28;20063;-56
2023/07/26 00:48:19;;;;;;;2.63;1.30;;;12.80;99.90;;;;;;4973252;28;20109;-57
2023/07/26 00:50:47;;;;;;;2.53;1.52;;;12.80;99.90;;;;;;4971957;28;20035;-57
2023/07/26 00:53:14;;;;;;;2.30;1.20;;;12.80;99.90;;;;;;4971490;28;20499;-57
2023/07/26 00:55:42;;;;;;;2.20;1.40;;;12.70;99.90;;;;;;4972017;28;20035;-53
2023/07/26 00:58:09;;;;;;;2.05;1.15;;;12.70;99.90;;;;;;4971910;28;20459;-57
2023/07/26 01:00:40;;;;;;;2.65;1.30;;;12.70;99.90;;;;;;4971803;28;20051;-56
2023/07/26 01:03:06;;;;;;;3.28;1.50;;;12.70;99.90;;;;;;4971230;28;20491;-56
2023/07/26 01:05:42;;;;;;;3.45;1.10;;;12.70;99.90;;;;;;4971743;28;20030;-56
2023/07/26 01:08:17;;;;;;;2.75;1.50;;;12.70;99.90;;;;;;4973128;28;20073;-56
2023/07/26 01:10:56;;;;;;;2.20;1.13;;;12.70;99.90;;;;;;4971967;28;20031;-57
2023/07/26 01:13:45;;;;;;;8.25;1.50;;;12.70;99.90;;;;;;4972652;28;20043;-59
2023/07/26 01:16:11;;;;;;;2.65;1.30;;;12.70;99.90;;;;;;4973250;28;20057;-58
2023/07/26 01:18:37;;;;;;;4.25;1.50;;;12.60;99.90;;;;;;4973022;28;20387;-58
2023/07/26 01:21:03;;;;;;;1.85;1.20;;;12.60;99.90;;;;;;4971427;28;20041;-59
2023/07/26 01:23:28;;;;;;;3.00;1.45;;;12.60;99.90;;;;;;4972510;28;20023;-57
2023/07/26 01:25:54;;;;;;;2.38;1.30;;;12.60;99.90;;;;;;4972753;28;20050;-57
2023/07/26 01:28:19;;;;;;;1.55;1.30;;;12.60;99.90;;;;;;4971309;28;20126;-58
2023/07/26 01:30:47;;;;;;;3.50;1.27;;;12.60;99.90;;;;;;4971431;28;20491;-58
2023/07/26 01:33:14;;;;;;;4.10;1.50;;;12.60;99.90;;;;;;4972568;28;20045;-58
2023/07/26 01:35:41;;;;;;;2.17;1.35;;;12.60;99.90;;;;;;4972632;28;20049;-55
2023/07/26 01:38:08;;;;;;;2.08;1.20;;;12.60;99.90;;;;;;4971272;28;20426;-58
2023/07/26 01:40:35;;;;;;;2.58;1.40;;;12.60;99.90;;;;;;4971047;28;20041;-58
2023/07/26 01:43:01;;;;;;;2.55;1.50;;;12.60;99.90;;;;;;4970592;28;20118;-54
2023/07/26 01:45:27;;;;;;;3.67;1.38;;;12.60;99.90;;;;;;4971114;28;20380;-58
2023/07/26 01:47:53;;;;;;;2.42;1.50;;;12.60;99.90;;;;;;4972354;28;20399;-58
2023/07/26 01:50:19;;;;;;;2.70;1.50;;;12.70;99.90;;;;;;4971027;28;20077;-58
2023/07/26 01:52:45;;;;;;;4.18;1.50;;;12.80;99.90;;;;;;4970688;28;20034;-55
2023/07/26 01:55:10;;;;;;;2.97;1.33;;;12.80;99.90;;;;;;4970628;28;20046;-56
2023/07/26 01:57:36;;;;;;;4.15;1.40;;;12.80;99.90;;;;;;4970858;28;20034;-58
2023/07/26 02:00:02;;;;;;;3.03;1.63;;;12.80;99.90;;;;;;4970821;28;20411;-58
2023/07/26 02:02:38;;;;;;;3.13;1.60;;;12.90;99.90;;;;;;4971849;28;20054;-58
2023/07/26 02:05:04;;;;;;;4.63;1.98;;;13.00;99.90;;;;;;4971941;28;20488;-58
2023/07/26 02:07:30;;;;;;;4.35;1.67;;;13.10;99.90;;;;;;4970768;28;20165;-53
2023/07/26 02:09:56;;;;;;;3.38;1.92;;;13.10;99.90;;;;;;4970979;28;20113;-57
2023/07/26 02:12:22;;;;;;;3.05;1.55;;;13.10;99.90;;;;;;4970503;28;20027;-57
2023/07/26 02:14:47;;;;;;;3.10;1.58;;;13.10;99.90;;;;;;4970696;28;20038;-59
2023/07/26 02:17:13;;;;;;;4.82;1.52;;;13.10;99.90;;;;;;4971901;28;20554;-57
2023/07/26 02:19:38;;;;;;;3.95;1.90;;;13.20;99.90;;;;;;4970626;28;20519;-56
2023/07/26 02:22:04;;;;;;;3.03;1.67;;;13.10;99.90;;;;;;4971716;28;20042;-59
2023/07/26 02:24:30;;;;;;;4.45;1.70;;;13.10;99.90;;;;;;4970204;28;20062;-55
2023/07/26 02:26:55;;;;;;;2.92;1.63;;;13.10;99.90;;;;;;4970523;28;20536;-57
2023/07/26 02:29:21;;;;;;;4.18;1.77;;;13.10;99.90;;;;;;4970519;28;20069;-58
2023/07/26 02:31:47;;;;;;;4.18;1.95;;;13.10;99.90;;;;;;4971241;28;20027;-57
2023/07/26 02:34:13;;;;;;;3.25;1.77;;;13.00;99.90;;;;;;4974231;28;20082;-59
2023/07/26 02:36:40;;;;;;;2.85;2.00;;;13.00;99.90;;;;;;4975752;28;20403;-57
2023/07/26 02:39:06;;;;;;;3.75;1.90;;;13.00;99.90;;;;;;4974368;28;20035;-59
2023/07/26 02:41:31;;;;;;;5.22;1.70;;;13.00;99.90;;;;;;4974149;28;20432;-59
2023/07/26 02:43:57;;;;;;;3.85;1.95;;;13.00;99.90;;;;;;4975145;28;20031;-59
2023/07/26 02:46:23;;;;;;;4.07;1.65;;;13.00;99.90;;;;;;4975490;28;20033;-59
2023/07/26 02:48:49;;;;;;;3.00;1.60;;;13.00;99.90;;;;;;4975753;28;20364;-59
2023/07/26 02:51:14;;;;;;;3.45;1.80;;;13.00;99.90;;;;;;4975587;28;20122;-59
2023/07/26 02:53:40;;;;;;;5.15;1.92;;;13.00;99.90;;;;;;4973578;28;20034;-59
2023/07/26 02:56:05;;;;;;;4.22;1.40;;;13.00;99.90;;;;;;4974101;28;20027;-59
2023/07/26 02:58:31;;;;;;;4.60;2.08;;;13.00;99.90;;;;;;4974120;28;20027;-59
2023/07/26 03:00:57;;;;;;;3.03;1.50;;;13.00;99.90;;;;;;4990358;28;20475;-57
2023/07/26 03:03:22;;;;;;;4.75;1.90;;;13.00;99.90;;;;;;4974761;28;20027;-57
2023/07/26 03:05:48;;;;;;;4.65;1.80;;;13.10;99.90;;;;;;4973892;28;20159;-59
2023/07/26 03:08:14;;;;;;;3.33;1.83;;;13.10;99.90;;;;;;4973876;28;20030;-58
2023/07/26 03:10:39;;;;;;;5.50;2.38;;;13.10;99.90;;;;;;4975572;28;20380;-59
2023/07/26 03:13:05;;;;;;;5.88;2.10;;;13.10;99.90;;;;;;4974918;28;20483;-59
2023/07/26 03:15:31;;;;;;;3.05;1.70;;;13.10;99.90;;;;;;4975280;28;20027;-57
2023/07/26 03:17:57;;;;;;;3.97;2.13;;;13.10;99.90;;;;;;4990219;28;20045;-58
2023/07/26 03:20:23;;;;;;;4.72;1.90;;;13.10;99.90;;;;;;4975086;28;20043;-55
2023/07/26 03:22:48;;;;;;;2.90;1.85;;;13.30;99.90;;;;;;4973273;28;20062;-56
2023/07/26 03:25:14;;;;;;;4.82;2.10;;;13.30;99.90;;;;;;4973453;28;20476;-58
2023/07/26 03:27:39;;;;;;;6.72;3.13;;;13.30;99.90;;;;;;4974685;28;20495;-59
2023/07/26 03:30:06;;;;;;;3.45;2.10;;;13.20;99.90;;;;;;4974786;28;20018;-57
2023/07/26 03:32:31;;;;;;;3.67;2.13;;;13.20;99.90;;;;;;4974505;28;20451;-57
2023/07/26 03:34:57;;;;;;;4.75;2.60;;;13.20;99.90;;;;;;4973258;28;20031;-59
2023/07/26 03:37:22;;;;;;;4.57;2.70;;;13.30;99.90;;;;;;4974608;28;20034;-58
2023/07/26 03:39:48;;;;;;;4.82;2.67;;;13.30;99.90;;;;;;4974636;28;20027;-58
2023/07/26 03:42:14;;;;;;;4.65;2.88;;;13.50;99.90;;;;;;4972860;28;20065;-57
2023/07/26 03:44:39;;;;;;;4.63;2.40;;;13.50;99.90;;;;;;4974306;28;20090;-58
2023/07/26 03:47:05;;;;;;;3.88;2.38;;;13.60;99.90;;;;;;4974511;28;20027;-55
2023/07/26 03:49:31;;;;;;;7.53;2.50;;;13.60;99.90;;;;;;4973279;28;20476;-58
2023/07/26 03:51:56;;;;;;;4.10;2.55;;;13.60;99.90;;;;;;4974759;28;20023;-58
2023/07/26 03:54:22;;;;;;;5.35;2.90;;;13.60;99.90;;;;;;4972932;28;20027;-58
2023/07/26 03:56:48;;;;;;;5.97;3.15;;;13.60;99.90;;;;;;4973159;28;20510;-56
2023/07/26 03:59:13;;;;;;;4.55;2.67;;;13.70;99.90;;;;;;4973094;28;20031;-55
2023/07/26 04:01:39;;;;;;;3.38;2.60;;;13.80;99.90;;;;;;4974233;28;20023;-58
2023/07/26 04:04:05;;;;;;;5.28;3.10;;;13.80;99.90;;;;;;4972706;28;20061;-56
2023/07/26 04:06:31;;;;;;;4.97;2.95;;;13.70;99.90;;;;;;4974322;28;20484;-57
2023/07/26 04:08:57;;;;;;;5.03;2.67;;;13.60;99.90;;;;;;4973275;28;20487;-59
2023/07/26 04:11:22;;;;;;;5.32;2.70;;;13.50;99.90;;;;;;4974202;28;20038;-59
2023/07/26 04:13:48;;;;;;;4.43;2.20;;;13.50;99.90;;;;;;4973836;28;20035;-57
2023/07/26 04:16:18;;;;;;;4.00;2.65;;;13.40;99.90;;;;;;4974136;28;20035;-58
2023/07/26 04:18:44;;;;;;;5.30;2.40;;;13.40;99.90;;;;;;4974005;28;20042;-59
2023/07/26 04:21:13;;;;;;;5.00;2.40;;;13.40;99.90;;;;;;4974450;28;20043;-59
2023/07/26 04:23:39;;;;;;;;;;;13.40;99.90;;;;;;4973866;28;20043;-59
2023/07/26 04:26:05;;;;;;;4.90;2.50;;;13.40;99.90;;;;;;4973783;28;19961;-57
2023/07/26 04:28:30;;;;;;;4.45;2.83;;;13.40;99.90;;;;;;4973603;28;20031;-59
2023/07/26 04:30:56;;;;;;;4.63;2.78;;;13.40;99.90;;;;;;4973710;28;20054;-57
2023/07/26 04:33:22;;;;;;;4.78;2.60;;;13.30;99.90;;;;;;4973163;28;20031;-58
2023/07/26 04:35:47;;;;;;;4.68;2.95;;;13.40;99.90;;;;;;4973528;28;20034;-57
2023/07/26 04:38:13;;;;;;;5.85;3.30;;;13.40;99.90;;;;;;4973586;28;20057;-55
2023/07/26 04:40:39;;;;;;;4.75;2.55;;;13.40;99.90;;;;;;4973441;28;20038;-55
2023/07/26 04:43:05;;;;;;;5.75;2.70;;;13.30;99.90;;;;;;4972833;28;20419;-56
2023/07/26 04:45:30;;;;;;;8.07;2.40;;;13.30;99.90;;;;;;4973556;28;20471;-59
2023/07/26 04:47:56;;;;;;;4.03;2.42;;;13.30;99.90;;;;;;4973319;28;20031;-56
2023/07/26 04:50:22;;;;;;;5.15;3.00;;;13.30;99.90;;;;;;4971966;28;20057;-59
2023/07/26 04:52:47;;;;;;;4.95;2.47;;;13.20;99.90;;;;;;4972966;28;20030;-57
2023/07/26 04:55:13;;;;;;;4.82;2.55;;;13.20;99.90;;;;;;4972120;28;20062;-54
2023/07/26 04:57:39;;;;;;;5.93;2.90;;;13.20;99.90;;;;;;4987841;28;20046;-57
2023/07/26 05:00:07;;;;;;;6.18;3.05;;;13.20;99.90;;;;;;4972811;28;20042;-58
2023/07/26 05:02:32;;;;;;;4.93;2.50;;;13.20;99.90;;;;;;4972754;28;20125;-54
2023/07/26 05:04:58;;;;;;;4.63;2.72;;;13.30;99.90;;;;;;4972474;28;20696;-56
2023/07/26 05:07:24;;;;;;;4.35;2.70;;;13.30;99.90;;;;;;4972631;28;20039;-57
2023/07/26 05:09:49;;;;;;;5.25;2.70;;;13.30;99.90;;;;;;4972763;28;20031;-57
2023/07/26 05:12:15;;;;;;;5.97;2.67;;;13.30;99.90;;;;;;4972471;28;20034;-57
2023/07/26 05:14:43;;;;;;;8.15;3.08;;;13.30;99.90;;;;;;4972494;28;20085;-57
2023/07/26 05:17:08;;;;;;;6.47;2.90;;;13.30;99.90;;;;;;4972454;28;20537;-59
2023/07/26 05:19:34;;;;;;;6.43;2.75;;;13.30;99.90;;;;;;4972571;28;20069;-58
2023/07/26 05:21:59;;;;;;;7.20;3.40;;;13.30;99.90;;;;;;4972448;28;20055;-58
2023/07/26 05:24:25;;;;;;;6.10;2.58;;;13.40;99.90;;;;;;4972137;28;20447;-59
2023/07/26 05:29:22;;;;;;;6.55;2.83;;;13.50;99.90;;;;;;4917281;28;20040;-52
2023/07/26 05:31:47;;;;;;;5.72;3.10;;;13.60;99.90;;;;;;4918316;29;20508;-51
2023/07/26 05:34:13;;;;;;;4.70;2.53;;;13.60;99.90;;;;;;4935585;29;20078;-49
2023/07/26 05:36:38;;;;;;;4.32;2.42;;;13.60;99.90;;;;;;4936530;29;20040;-52
2023/07/26 05:39:04;;;;;;;7.25;2.72;;;13.60;99.90;;;;;;4937515;29;20062;-52
2023/07/26 05:41:31;;;;;;;6.53;3.10;;;13.70;99.90;;;;;;4936968;29;20036;-49
2023/07/26 05:43:59;;;;;;;6.80;2.55;;;13.70;99.90;;;;;;4936842;29;20036;-53
2023/07/26 05:46:25;;;;;;;4.72;2.60;;;13.70;99.90;;;;;;4936912;29;20091;-51
2023/07/26 05:48:50;;;;;;;4.30;2.55;;;13.70;99.90;;;;;;4937607;29;20491;-50
2023/07/26 05:51:16;;;;;;;6.18;2.70;;;13.80;99.90;;;;;;4937149;29;20028;-52
2023/07/26 05:53:42;;;;;;;4.03;2.28;;;13.90;99.90;;;;;;4936533;29;20031;-51
2023/07/26 05:56:08;;;;;;;5.88;2.38;;;14.00;99.90;;;;;;4937194;29;20061;-51
2023/07/26 05:58:33;;;;;;;4.78;2.15;;;14.00;99.90;;;;;;4936073;29;20103;-52
2023/07/26 06:00:59;;;;;;;5.60;2.63;;;14.00;99.90;;;;;;4937271;29;20063;-51
2023/07/26 06:03:25;;;;;;;4.70;2.70;;;14.10;99.90;;;;;;4936727;29;20024;-52
2023/07/26 06:05:50;;;;;;;4.38;2.00;;;14.10;99.90;;;;;;4936647;29;20038;-53
2023/07/26 06:08:17;;;;;;;2.70;1.92;;;14.10;99.90;;;;;;4936980;29;20034;-49
2023/07/26 06:10:43;;;;;;;2.92;2.20;;;14.20;99.90;;;;;;4937146;29;20028;-53
2023/07/26 06:13:12;;;;;;;3.63;1.67;;;14.40;99.90;;;;;;4936607;29;20031;-52
2023/07/26 06:15:40;;;;;;;4.00;2.35;;;14.40;99.90;;;;;;4936695;29;20031;-52
2023/07/26 06:18:06;;;;;;;5.43;2.10;;;14.50;99.90;;;;;;4937166;29;20047;-52
2023/07/26 06:20:31;;;;;;;3.47;2.17;;;14.50;99.90;;;;;;4936845;29;20079;-53
2023/07/26 06:22:58;;;;;;;20.60;10.20;;;14.60;99.90;;;;;;4937267;29;20212;-53
2023/07/26 06:25:24;;;;;;;7.53;4.03;;;14.70;99.90;;;;;;4936790;29;20055;-49
2023/07/26 06:27:50;;;;;;;5.45;2.90;;;14.80;99.90;;;;;;4937139;29;20031;-48
2023/07/26 06:30:15;;;;;;;5.25;2.50;;;14.90;99.90;;;;;;4935644;29;20039;-52
2023/07/26 06:32:41;;;;;;;3.85;2.20;;;15.00;99.90;;;;;;4936762;29;20039;-52
2023/07/26 06:35:10;;;;;;;4.95;2.60;;;15.10;99.90;;;;;;4936329;29;20540;-54
2023/07/26 06:37:36;;;;;;;6.47;3.17;;;15.20;99.90;;;;;;4936312;29;20067;-53
2023/07/26 06:40:02;;;;;;;5.88;2.90;;;15.30;99.90;;;;;;4936516;29;20050;-52
2023/07/26 06:42:28;;;;;;;6.32;3.58;;;15.40;99.90;;;;;;4935898;29;20044;-53
2023/07/26 06:44:54;;;;;;;7.05;3.83;;;15.60;99.90;;;;;;4936031;29;20057;-52
2023/07/26 06:47:20;;;;;;;6.43;3.55;;;15.60;99.90;;;;;;4936774;29;20032;-50
2023/07/26 06:49:45;;;;;;;9.50;3.83;;;15.80;99.90;;;;;;4936937;29;20043;-53
2023/07/26 06:52:11;;;;;;;8.75;3.90;;;15.90;99.90;;;;;;4935817;29;20412;-54
2023/07/26 06:54:37;;;;;;;6.55;3.53;;;15.90;99.90;;;;;;4936579;29;20036;-53
2023/07/26 06:57:03;;;;;;;10.57;3.88;;;16.00;99.90;;;;;;4936581;29;20596;-50
2023/07/26 06:59:28;;;;;;;7.18;3.22;;;16.10;99.90;;;;;;4935953;29;20192;-52
2023/07/26 07:01:54;;;;;;;10.27;5.55;;;16.10;99.90;;;;;;4935693;29;20562;-50
2023/07/26 07:04:20;;;;;;;24.83;13.20;;;16.30;99.90;;;;;;4936430;29;20501;-52
2023/07/26 07:06:45;;;;;;;6.50;3.58;;;16.30;99.90;;;;;;4934596;29;20036;-52
2023/07/26 07:09:12;;;;;;;6.07;3.25;;;16.40;99.90;;;;;;4933969;29;20028;-49
2023/07/26 07:11:38;;;;;;;8.85;3.15;;;16.50;99.90;;;;;;4933160;29;20036;-53
2023/07/26 07:14:03;;;;;;;5.20;3.10;;;16.50;99.90;;;;;;4933523;29;20032;-52
2023/07/26 07:16:29;;;;;;;6.70;3.20;;;16.40;99.90;;;;;;4933279;29;20528;-51
2023/07/26 07:18:55;;;;;;;6.18;3.80;;;16.50;99.90;;;;;;4935729;29;20043;-50
2023/07/26 07:21:21;;;;;;;6.78;3.42;;;16.60;99.90;;;;;;4936553;29;20488;-48
2023/07/26 07:23:47;;;;;;;7.07;3.45;;;16.60;99.90;;;;;;4936870;29;20046;-48
2023/07/26 07:26:13;;;;;;;5.80;3.20;;;16.70;99.90;;;;;;4936555;29;20024;-49
2023/07/26 07:28:39;;;;;;;7.25;3.85;;;16.70;99.90;;;;;;4937902;29;20032;-54
2023/07/26 07:31:06;;;;;;;8.93;4.38;;;16.80;99.90;;;;;;4938666;29;20031;-53
2023/07/26 07:33:32;;;;;;;8.38;4.78;;;16.90;99.90;;;;;;4938658;29;20039;-53
2023/07/26 07:35:57;;;;;;;8.70;4.13;;;17.10;99.90;;;;;;4938219;29;20221;-54
2023/07/26 07:38:23;;;;;;;6.75;4.13;;;17.20;99.90;;;;;;4953966;28;20047;-52
2023/07/26 07:40:49;;;;;;;8.55;4.15;;;17.10;99.90;;;;;;4937201;29;20038;-54
2023/07/26 07:43:15;;;;;;;8.13;4.50;;;17.20;99.90;;;;;;4938128;29;20194;-53
2023/07/26 07:45:41;;;;;;;9.00;4.35;;;17.40;99.90;;;;;;4938452;29;20531;-53
2023/07/26 07:48:07;;;;;;;13.55;6.43;;;17.30;99.90;;;;;;4953273;29;20035;-52
2023/07/26 07:50:32;;;;;;;7.70;4.22;;;17.40;99.90;;;;;;4952719;28;20180;-54
2023/07/26 07:52:58;;;;;;;15.80;8.57;;;17.50;99.90;;;;;;4937993;29;20491;-53
2023/07/26 07:55:24;;;;;;;7.35;4.53;;;17.60;99.90;;;;;;4938077;29;20107;-53
2023/07/26 07:57:49;;;;;;;12.40;5.97;;;17.80;99.90;;;;;;4938228;29;20036;-51
2023/07/26 08:00:15;;;;;;;6.93;4.45;;;17.90;99.90;;;;;;4938156;29;20027;-51
2023/07/26 08:02:41;;;;;;;9.65;4.63;;;18.00;99.90;;;;;;4938458;29;20086;-52
2023/07/26 08:05:07;;;;;;;9.50;4.75;;;18.20;99.90;;;;;;4937935;29;20035;-53
2023/07/26 08:07:32;;;;;;;7.18;3.47;;;18.30;99.90;;;;;;4937547;29;20439;-53
2023/07/26 08:09:58;;;;;;;6.70;3.50;;;18.40;99.90;;;;;;4952755;28;20071;-54
2023/07/26 08:12:23;;;;;;;5.03;3.03;;;18.60;99.90;;;;;;4937312;29;20035;-52
2023/07/26 08:14:52;;;;;;;5.57;3.60;;;18.70;99.90;;;;;;4938034;29;20032;-53
2023/07/26 08:17:18;;;;;;;;;;;18.80;99.90;;;;;;4938662;29;20069;-54
2023/07/26 08:19:46;;;;;;;8.45;4.18;;;18.80;99.90;;;;;;4937998;29;19911;-54
2023/07/26 08:22:11;;;;;;;8.35;4.03;;;18.80;99.90;;;;;;4938068;29;20067;-54
2023/07/26 08:24:37;;;;;;;7.50;3.08;;;18.90;99.90;;;;;;4937383;29;20035;-53
2023/07/26 08:27:05;;;;;;;7.80;4.32;;;18.90;99.90;;;;;;4937019;29;20028;-54
2023/07/26 08:29:31;;;;;;;8.45;4.60;;;18.90;99.90;;;;;;4936645;29;20040;-54
2023/07/26 08:31:57;;;;;;;9.30;4.90;;;19.00;99.90;;;;;;4937651;29;20036;-52
2023/07/26 08:34:23;;;;;;;8.60;4.30;;;19.00;99.90;;;;;;4937535;29;20032;-53
2023/07/26 08:36:48;;;;;;;6.47;3.53;;;19.00;99.90;;;;;;4936626;29;20044;-54
2023/07/26 08:39:14;;;;;;;5.82;3.40;;;19.00;99.90;;;;;;4937192;29;20098;-50
2023/07/26 08:41:40;;;;;;;7.20;3.65;;;19.00;99.90;;;;;;4937267;29;20473;-52
2023/07/26 08:44:08;;;;;;;4.68;2.90;;;18.90;99.90;;;;;;4937585;29;20032;-52
2023/07/26 08:46:45;;;;;;;7.50;2.70;;;18.70;99.90;;;;;;4937841;29;20216;-53
2023/07/26 08:49:12;;;;;;;7.68;3.47;;;18.50;99.90;;;;;;4937331;29;20032;-52
2023/07/26 08:51:40;;;;;;;7.55;3.22;;;18.40;99.90;;;;;;4937022;29;20032;-50
2023/07/26 08:54:06;;;;;;;6.75;2.90;;;18.40;99.90;;;;;;4936943;29;20036;-49
2023/07/26 08:56:32;;;;;;;7.15;3.45;;;18.30;99.90;;;;;;4937666;29;20035;-52
2023/07/26 08:58:59;;;;;;;8.63;3.45;;;18.40;99.90;;;;;;4936894;29;20083;-49
2023/07/26 09:01:27;;;;;;;6.40;3.85;;;18.40;99.90;;;;;;4936887;29;20492;-50
2023/07/26 09:03:53;;;;;;;27.75;12.75;;;18.30;99.90;;;;;;4935724;29;20469;-50
2023/07/26 09:06:19;;;;;;;14.35;7.70;;;18.40;99.90;;;;;;4935037;29;20125;-51
2023/07/26 09:08:46;;;;;;;5.82;2.55;;;18.20;99.90;;;;;;4937100;29;20120;-54
2023/07/26 09:11:23;;;;;;;5.03;2.63;;;18.10;99.90;;;;;;4936862;29;20408;-53
2023/07/26 09:13:59;;;;;;;7.45;3.15;;;18.00;99.90;;;;;;4936406;29;20392;-54
2023/07/26 09:16:29;;;;;;;7.13;3.65;;;17.70;99.90;;;;;;4936831;29;20044;-54
2023/07/26 09:19:01;;;;;;;5.15;3.10;;;17.20;99.90;;;;;;4936845;29;20101;-51
2023/07/26 09:21:29;;;;;;;5.15;3.33;;;16.70;99.90;;;;;;4936376;29;20040;-53
2023/07/26 09:23:56;;;;;;;8.55;3.95;;;16.10;99.90;;;;;;4936530;29;20060;-53
2023/07/26 09:26:41;;;;;;;9.68;3.80;;;15.60;99.90;;;;;;4951313;29;20036;-54
2023/07/26 09:29:08;;;;;;;9.20;4.25;;;15.30;99.90;;;;;;4936221;29;20028;-54
2023/07/26 09:31:35;;;;;;;8.52;5.22;;;15.10;99.90;;;;;;4936635;29;20035;-54
2023/07/26 09:34:04;;;;;;;6.55;3.72;;;14.90;99.90;;;;;;4935971;29;20034;-53
2023/07/26 09:36:50;;;;;;;7.72;3.33;;;14.90;99.90;;;;;;4951197;29;20044;-53
2023/07/26 09:39:26;;;;;;;7.28;3.30;;;14.80;99.90;;;;;;4936379;29;20031;-54
2023/07/26 09:42:06;;;;;;;5.70;2.78;;;14.80;99.90;;;;;;4936322;29;20043;-53
2023/07/26 09:44:32;;;;;;;6.80;3.00;;;14.70;99.90;;;;;;4934425;29;20050;-52
2023/07/26 09:46:58;;;;;;;8.20;2.72;;;14.80;99.90;;;;;;4936556;29;20481;-53
2023/07/26 09:49:27;;;;;;;7.35;2.55;;;14.90;99.90;;;;;;4936143;29;20031;-52
2023/07/26 09:51:57;;;;;;;6.03;2.60;;;15.10;99.90;;;;;;4936212;29;20043;-54
2023/07/26 09:54:25;;;;;;;5.25;2.08;;;15.20;99.90;;;;;;4935427;29;20144;-54
2023/07/26 09:56:54;;;;;;;6.80;2.60;;;15.20;99.90;;;;;;4935950;29;20050;-54
2023/07/26 09:59:20;;;;;;;;;;;15.40;99.90;;;;;;4936777;29;20043;-54
2023/07/26 10:01:47;;;;;;;7.95;2.80;;;15.50;99.90;;;;;;4935546;29;19911;-53
2023/07/26 10:04:32;;;;;;;7.50;2.50;;;15.80;99.90;;;;;;4935507;29;20098;-51
2023/07/26 10:07:00;;;;;;;7.45;3.17;;;16.00;99.90;;;;;;4935927;29;20496;-53
2023/07/26 10:09:27;;;;;;;7.75;3.15;;;16.20;99.90;;;;;;4936357;29;20050;-54
2023/07/26 10:11:57;;;;;;;7.45;3.10;;;16.40;99.90;;;;;;4935611;29;20043;-54
2023/07/26 10:14:24;;;;;;;8.00;3.35;;;16.50;99.90;;;;;;4935443;29;20031;-54
2023/07/26 10:16:52;;;;;;;6.13;3.22;;;16.60;99.90;;;;;;4935656;29;20378;-53
2023/07/26 10:19:18;;;;;;;7.63;3.30;;;16.80;99.90;;;;;;4935365;29;20035;-54
2023/07/26 10:21:46;;;;;;;8.23;3.17;;;16.90;99.90;;;;;;4935593;29;20514;-53
2023/07/26 10:24:15;;;;;;;6.93;3.10;;;17.00;99.90;;;;;;4935341;29;20036;-53
2023/07/26 10:26:42;;;;;;;6.15;3.58;;;17.00;99.90;;;;;;4934200;29;20086;-53
2023/07/26 10:29:08;;;;;;;6.55;3.53;;;17.10;99.90;;;;;;4935654;29;20374;-54
2023/07/26 10:31:35;;;;;;;6.00;3.63;;;17.10;99.90;;;;;;4935275;29;20035;-53
2023/07/26 10:34:03;;;;;;;8.10;4.10;;;17.10;99.90;;;;;;4935216;29;20028;-51
2023/07/26 10:36:33;;;;;;;8.70;3.85;;;17.20;99.90;;;;;;4935453;29;20039;-49
2023/07/26 10:39:06;;;;;;;6.15;3.50;;;17.30;99.90;;;;;;4935728;29;20039;-54
2023/07/26 10:41:34;;;;;;;7.30;3.53;;;17.30;99.90;;;;;;4935023;29;20039;-54
2023/07/26 10:44:08;;;;;;;6.18;3.58;;;17.50;99.90;;;;;;4934891;29;20465;-51
2023/07/26 10:46:50;;;;;;;6.15;3.20;;;17.80;99.90;;;;;;4935502;29;20040;-52
2023/07/26 10:49:27;;;;;;;5.28;3.65;;;17.90;99.90;;;;;;4935182;29;20019;-53
2023/07/26 10:52:04;;;;;;;8.05;3.55;;;18.10;99.90;;;;;;4934793;29;20027;-54
2023/07/26 10:54:41;;;;;;;8.02;3.60;;;18.30;99.90;;;;;;4938951;29;20388;-54
2023/07/26 10:57:17;;;;;;;8.05;2.97;;;18.60;99.90;;;;;;4938887;29;20036;-54
2023/07/26 11:00:10;;;;;;;4.88;3.10;;;18.70;99.90;;;;;;4939172;29;20036;-52
2023/07/26 11:02:39;;;;;;;8.15;3.15;;;18.70;99.90;;;;;;4951213;29;20130;-53
2023/07/26 11:05:09;;;;;;;;;;;18.80;99.90;;;;;;4939006;29;20043;-54
2023/07/26 11:08:00;;;;;;;4.80;2.53;;;19.20;99.90;;;;;;4938715;29;19914;-54
2023/07/26 11:10:32;;;;;;;6.53;2.35;;;19.40;99.90;;;;;;4938872;29;20067;-54
2023/07/26 11:13:09;;;;;;;7.20;2.58;;;19.60;99.90;;;;;;4938714;29;20078;-53
2023/07/26 11:15:36;;;;;;;3.97;2.55;;;19.80;99.90;;;;;;4938830;29;20481;-54
2023/07/26 11:18:03;;;;;;;4.40;2.50;;;19.80;99.90;;;;;;4939128;29;20094;-52
2023/07/26 11:20:28;;;;;;;4.38;2.47;;;19.80;99.90;;;;;;4938259;29;20327;-54
2023/07/26 11:22:54;;;;;;;5.25;2.30;;;19.80;99.90;;;;;;4938318;29;20029;-53
2023/07/26 11:25:20;;;;;;;4.65;2.78;;;20.10;99.90;;;;;;4938084;29;20032;-54
2023/07/26 11:27:49;;;;;;;6.10;2.40;;;20.20;99.90;;;;;;4964952;23;20389;-55
2023/07/26 11:30:18;;;;;;;;;;;20.30;99.90;;;;;;4975198;28;20435;-54
2023/07/26 11:32:50;;;;;;;4.50;2.22;;;20.20;99.90;;;;;;4974461;28;20009;-55
2023/07/26 11:35:20;;;;;;;4.57;2.28;;;20.00;99.90;;;;;;4974320;28;20431;-53
2023/07/26 11:37:51;;;;;;;8.57;2.78;;;20.00;99.90;;;;;;4972828;28;20062;-55
2023/07/26 11:40:17;;;;;;;4.18;2.40;;;20.20;99.90;;;;;;4973237;28;20117;-54
2023/07/26 11:42:43;;;;;;;5.13;2.85;;;20.30;99.90;;;;;;4971529;28;20480;-53
2023/07/26 11:45:09;;;;;;;5.20;2.85;;;20.20;99.90;;;;;;4974671;28;20034;-55
2023/07/26 11:47:35;;;;;;;5.07;2.63;;;20.20;99.90;;;;;;4974601;28;20043;-53
2023/07/26 11:50:05;;;;;;;5.13;2.58;;;20.10;99.90;;;;;;4974485;28;20119;-51
2023/07/26 11:52:31;;;;;;;6.63;2.83;;;20.20;99.90;;;;;;4974118;28;20038;-55
2023/07/26 11:55:04;;;;;;;6.32;2.72;;;20.30;99.90;;;;;;4973737;28;20031;-52
2023/07/26 11:57:30;;;;;;;5.70;3.10;;;20.30;99.90;;;;;;4973841;28;20043;-50
2023/07/26 11:59:59;;;;;;;4.45;2.20;;;20.50;99.90;;;;;;4973788;28;20202;-52
2023/07/26 12:02:25;;;;;;;4.93;3.33;;;20.50;99.90;;;;;;4973704;28;20038;-56
2023/07/26 12:05:13;;;;;;;4.90;2.67;;;20.60;99.90;;;;;;4973425;28;20106;-56
2023/07/26 12:07:50;;;;;;;6.10;2.78;;;20.60;99.90;;;;;;4973865;28;20042;-54
2023/07/26 12:10:17;;;;;;;3.60;2.40;;;20.50;99.90;;;;;;4973362;28;20026;-55
2023/07/26 12:12:44;;;;;;;7.45;3.22;;;20.50;99.90;;;;;;4971921;28;20033;-56
2023/07/26 12:15:10;;;;;;;6.00;3.00;;;20.50;99.90;;;;;;4971890;28;20035;-56
2023/07/26 12:17:44;;;;;;;6.82;3.00;;;20.50;99.90;;;;;;4972220;28;20070;-59
2023/07/26 12:20:10;;;;;;;4.00;2.70;;;20.50;99.90;;;;;;4972213;28;20040;-54
2023/07/26 12:22:52;;;;;;;6.90;3.50;;;20.60;99.90;;;;;;4973286;28;20292;-53
2023/07/26 12:25:19;;;;;;;9.50;4.10;;;20.80;99.90;;;;;;4973255;28;20073;-56
2023/07/26 12:27:47;;;;;;;7.18;3.70;;;20.60;99.90;;;;;;4973366;28;20039;-56
2023/07/26 12:30:13;;;;;;;5.38;3.30;;;20.40;99.90;;;;;;4973479;28;20089;-54
2023/07/26 12:32:39;;;;;;;7.50;3.40;;;20.30;99.90;;;;;;4973272;28;20022;-55
2023/07/26 12:35:22;;;;;;;6.13;3.20;;;20.30;99.90;;;;;;4973440;28;20039;-57
2023/07/26 12:37:49;;;;;;;8.93;3.80;;;20.30;99.90;;;;;;4973490;28;20436;-57
2023/07/26 12:40:18;;;;;;;5.43;2.80;;;20.40;99.90;;;;;;4973177;28;20042;-55
2023/07/26 12:42:43;;;;;;;6.07;2.63;;;20.40;99.90;;;;;;4973271;28;20468;-57
2023/07/26 12:45:09;;;;;;;6.53;2.65;;;20.50;99.90;;;;;;4972824;28;20037;-51
2023/07/26 12:47:35;;;;;;;8.02;3.70;;;20.60;99.90;;;;;;4972965;28;20101;-55
2023/07/26 12:50:00;;;;;;;5.22;2.95;;;20.80;99.90;;;;;;4973022;28;20027;-51
2023/07/26 12:52:26;;;;;;;8.52;3.28;;;20.90;99.90;;;;;;4972365;28;20037;-55